Main page
METAR-TAF:

METAR-TAF

Airports :

Damascus International Airport

Damascus, Syria

latitude: 33-25N, longitude: 036-31E, elevation: 608 m

Current weather observation

The report was made 23 minutes ago, at 07:00 UTC
Wind 22 kt from the Southwest
Temperature 25°C
Humidity 30%
Pressure 1011 hPa
Visibility 10 km or more
Few clouds at a height of 3000 ft

METAR: OSDI 240700Z 22022KT 9999 FEW030 25/06 Q1011

Time: 10:23 (07:23 UTC)

Forecast

The report was made 3 hours and 23 minutes ago, at 04:00 UTC
Forecast valid from 24 at 06 UTC to 25 at 12 UTC
Visibility: 8000 m
Few clouds at a height of 3000 ft
Temporary
from 24 at 06 UTC to 24 at 21 UTC
Wind 20 kt from the West with gusts up to 35 kt
Visibility: 6000 m
Scattered clouds at a height of 3000 ft

TAF: OSDI 240400Z 2406/2512 20015G25 KT 8000 FEW030 TEMPO 2406/2421 26020G35KT 6000 SCT030

Weather observations and forecasts of more than 4000 airports (METAR and TAF reports).

The available stations are represented by yellow and red dots on the map.

Hover mouse over dot to see the name of the station.

Then click to see weather observations and forecasts.

To change the map : click on the green buttons with a black cross to zoom in, on the green button with a dash to zoom out, or on the green arrows for adjacent maps.


METAR-TAF: